sensor_id;sensor_type;location;lat;lon;timestamp;pressure;altitude;pressure_sealevel;temperature;humidity
54270;BME280;40181;51.560;13.000;2022-12-05T00:00:09;100751.78;;;2.84;100.00
54270;BME280;40181;51.560;13.000;2022-12-05T00:02:40;100741.75;;;2.73;100.00
54270;BME280;40181;51.560;13.000;2022-12-05T00:05:12;100743.25;;;2.68;100.00
54270;BME280;40181;51.560;13.000;2022-12-05T00:07:41;100741.41;;;2.84;100.00
54270;BME280;40181;51.560;13.000;2022-12-05T00:10:10;100739.53;;;2.81;100.00
54270;BME280;40181;51.560;13.000;2022-12-05T00:12:40;100741.84;;;2.75;100.00
54270;BME280;40181;51.560;13.000;2022-12-05T00:15:09;100742.34;;;2.86;100.00
54270;BME280;40181;51.560;13.000;2022-12-05T00:17:39;100748.88;;;2.78;100.00
54270;BME280;40181;51.560;13.000;2022-12-05T00:20:12;100755.84;;;2.79;100.00
54270;BME280;40181;51.560;13.000;2022-12-05T00:22:41;100740.38;;;2.80;100.00
54270;BME280;40181;51.560;13.000;2022-12-05T00:25:10;100732.28;;;2.74;100.00
54270;BME280;40181;51.560;13.000;2022-12-05T00:27:39;100740.06;;;2.74;100.00
54270;BME280;40181;51.560;13.000;2022-12-05T00:30:09;100736.28;;;2.67;100.00
54270;BME280;40181;51.560;13.000;2022-12-05T00:32:38;100736.66;;;2.75;100.00
54270;BME280;40181;51.560;13.000;2022-12-05T00:35:11;100736.66;;;2.75;100.00
54270;BME280;40181;51.560;13.000;2022-12-05T00:37:40;100729.28;;;2.84;100.00
54270;BME280;40181;51.560;13.000;2022-12-05T00:40:09;100741.22;;;2.81;100.00
54270;BME280;40181;51.560;13.000;2022-12-05T00:42:39;100735.22;;;2.82;100.00
54270;BME280;40181;51.560;13.000;2022-12-05T00:45:11;100734.06;;;2.75;100.00
54270;BME280;40181;51.560;13.000;2022-12-05T00:47:40;100732.28;;;2.74;100.00
54270;BME280;40181;51.560;13.000;2022-12-05T00:50:12;100735.00;;;2.77;100.00
54270;BME280;40181;51.560;13.000;2022-12-05T00:52:42;100733.75;;;2.69;100.00
54270;BME280;40181;51.560;13.000;2022-12-05T00:55:11;100733.53;;;2.64;100.00
54270;BME280;40181;51.560;13.000;2022-12-05T00:57:40;100735.00;;;2.77;100.00
54270;BME280;40181;51.560;13.000;2022-12-05T01:00:11;100734.66;;;2.69;100.00
54270;BME280;40181;51.560;13.000;2022-12-05T01:02:40;100737.16;;;2.68;100.00
54270;BME280;40181;51.560;13.000;2022-12-05T01:05:12;100741.75;;;2.73;100.00
54270;BME280;40181;51.560;13.000;2022-12-05T01:07:41;100747.72;;;2.71;100.00
54270;BME280;40181;51.560;13.000;2022-12-05T01:10:11;100745.34;;;2.75;100.00
54270;BME280;40181;51.560;13.000;2022-12-05T01:12:40;100746.06;;;2.73;100.00
54270;BME280;40181;51.560;13.000;2022-12-05T01:15:10;100749.97;;;2.83;100.00
54270;BME280;40181;51.560;13.000;2022-12-05T01:17:39;100740.38;;;2.80;100.00
54270;BME280;40181;51.560;13.000;2022-12-05T01:20:12;100750.88;;;2.83;100.00
54270;BME280;40181;51.560;13.000;2022-12-05T01:22:41;100749.91;;;2.81;100.00
54270;BME280;40181;51.560;13.000;2022-12-05T01:25:10;100747.53;;;2.86;100.00
54270;BME280;40181;51.560;13.000;2022-12-05T01:27:39;100745.00;;;2.87;100.00
54270;BME280;40181;51.560;13.000;2022-12-05T01:30:09;100745.91;;;2.70;100.00
54270;BME280;40181;51.560;13.000;2022-12-05T01:32:39;100748.16;;;2.80;100.00
54270;BME280;40181;51.560;13.000;2022-12-05T01:35:11;100741.31;;;2.82;100.00
54270;BME280;40181;51.560;13.000;2022-12-05T01:37:41;100742.28;;;2.84;100.00
54270;BME280;40181;51.560;13.000;2022-12-05T01:40:10;100751.78;;;2.84;100.00
54270;BME280;40181;51.560;13.000;2022-12-05T01:42:39;100745.47;;;2.79;100.00
54270;BME280;40181;51.560;13.000;2022-12-05T01:45:13;100743.75;;;2.79;100.00
54270;BME280;40181;51.560;13.000;2022-12-05T01:47:45;100748.66;;;2.73;100.00
54270;BME280;40181;51.560;13.000;2022-12-05T01:50:17;100741.22;;;2.81;100.00
54270;BME280;40181;51.560;13.000;2022-12-05T01:52:46;100752.78;;;2.87;100.00
54270;BME280;40181;51.560;13.000;2022-12-05T01:55:16;100744.78;;;2.83;100.00
54270;BME280;40181;51.560;13.000;2022-12-05T01:57:47;100742.34;;;2.86;100.00
54270;BME280;40181;51.560;13.000;2022-12-05T02:00:18;100733.53;;;2.82;100.00
54270;BME280;40181;51.560;13.000;2022-12-05T02:02:51;100739.59;;;2.83;100.00
54270;BME280;40181;51.560;13.000;2022-12-05T02:05:26;100749.31;;;2.87;100.00
54270;BME280;40181;51.560;13.000;2022-12-05T02:07:58;100747.31;;;2.81;100.00
54270;BME280;40181;51.560;13.000;2022-12-05T02:10:33;100746.41;;;2.81;100.00
54270;BME280;40181;51.560;13.000;2022-12-05T02:13:10;100744.00;;;2.84;100.00
54270;BME280;40181;51.560;13.000;2022-12-05T02:15:50;100736.66;;;2.93;100.00
54270;BME280;40181;51.560;13.000;2022-12-05T02:18:33;100750.38;;;2.90;100.00
54270;BME280;40181;51.560;13.000;2022-12-05T02:21:31;100740.13;;;2.94;100.00
54270;BME280;40181;51.560;13.000;2022-12-05T02:27:40;100741.63;;;2.88;100.00
54270;BME280;40181;51.560;13.000;2022-12-05T02:30:22;100744.88;;;2.84;100.00
54270;BME280;40181;51.560;13.000;2022-12-05T02:33:03;100743.19;;;2.85;100.00
54270;BME280;40181;51.560;13.000;2022-12-05T02:35:47;100738.13;;;2.88;100.00
54270;BME280;40181;51.560;13.000;2022-12-05T02:38:25;100745.22;;;2.92;100.00
54270;BME280;40181;51.560;13.000;2022-12-05T02:41:08;100741.00;;;2.94;100.00
54270;BME280;40181;51.560;13.000;2022-12-05T02:43:45;100742.78;;;2.95;100.00
54270;BME280;40181;51.560;13.000;2022-12-05T02:46:23;100738.78;;;3.02;100.00
54270;BME280;40181;51.560;13.000;2022-12-05T02:48:56;100737.22;;;3.06;100.00
54270;BME280;40181;51.560;13.000;2022-12-05T02:51:30;100735.28;;;3.01;100.00
54270;BME280;40181;51.560;13.000;2022-12-05T02:54:07;100734.28;;;2.98;100.00
54270;BME280;40181;51.560;13.000;2022-12-05T02:56:39;100736.09;;;3.00;100.00
54270;BME280;40181;51.560;13.000;2022-12-05T02:59:12;100735.22;;;3.00;100.00
54270;BME280;40181;51.560;13.000;2022-12-05T03:01:45;100731.50;;;2.95;100.00
54270;BME280;40181;51.560;13.000;2022-12-05T03:04:15;100733.66;;;3.03;100.00
54270;BME280;40181;51.560;13.000;2022-12-05T03:06:50;100737.00;;;3.01;100.00
54270;BME280;40181;51.560;13.000;2022-12-05T03:09:24;100730.84;;;2.99;100.00
54270;BME280;40181;51.560;13.000;2022-12-05T03:12:01;100728.31;;;3.00;100.00
54270;BME280;40181;51.560;13.000;2022-12-05T03:14:37;100731.81;;;3.01;100.00
54270;BME280;40181;51.560;13.000;2022-12-05T03:17:15;100731.81;;;3.01;100.00
54270;BME280;40181;51.560;13.000;2022-12-05T03:19:54;100728.25;;;2.99;100.00
54270;BME280;40181;51.560;13.000;2022-12-05T03:22:29;100728.59;;;3.07;100.00
54270;BME280;40181;51.560;13.000;2022-12-05T03:25:03;100732.47;;;2.97;100.00
54270;BME280;40181;51.560;13.000;2022-12-05T03:27:39;100736.53;;;3.10;100.00
54270;BME280;40181;51.560;13.000;2022-12-05T03:30:16;100728.06;;;3.14;100.00
54270;BME280;40181;51.560;13.000;2022-12-05T03:32:54;100732.38;;;3.13;100.00
54270;BME280;40181;51.560;13.000;2022-12-05T03:35:35;100723.91;;;3.17;100.00
54270;BME280;40181;51.560;13.000;2022-12-05T03:38:08;100725.28;;;3.09;100.00
54270;BME280;40181;51.560;13.000;2022-12-05T03:40:42;100723.63;;;3.11;100.00
54270;BME280;40181;51.560;13.000;2022-12-05T03:43:19;100730.59;;;3.12;100.00
54270;BME280;40181;51.560;13.000;2022-12-05T03:45:55;100719.03;;;3.06;100.00
54270;BME280;40181;51.560;13.000;2022-12-05T03:48:33;100721.78;;;3.09;100.00
54270;BME280;40181;51.560;13.000;2022-12-05T03:51:09;100725.28;;;3.09;100.00
54270;BME280;40181;51.560;13.000;2022-12-05T03:53:44;100722.81;;;3.12;100.00
54270;BME280;40181;51.560;13.000;2022-12-05T03:56:19;100723.88;;;2.98;100.00
54270;BME280;40181;51.560;13.000;2022-12-05T03:58:58;100727.19;;;3.13;100.00
54270;BME280;40181;51.560;13.000;2022-12-05T04:01:33;100734.63;;;3.06;100.00
54270;BME280;40181;51.560;13.000;2022-12-05T04:04:09;100725.47;;;3.14;100.00
54270;BME280;40181;51.560;13.000;2022-12-05T04:06:44;100731.97;;;3.24;100.00
54270;BME280;40181;51.560;13.000;2022-12-05T04:09:18;100725.56;;;3.15;100.00
54270;BME280;40181;51.560;13.000;2022-12-05T04:11:54;100726.84;;;3.25;100.00
54270;BME280;40181;51.560;13.000;2022-12-05T04:14:30;100725.56;;;3.15;100.00
54270;BME280;40181;51.560;13.000;2022-12-05T04:17:05;100748.94;;;3.15;100.00
54270;BME280;40181;51.560;13.000;2022-12-05T04:19:39;100732.91;;;3.06;100.00
54270;BME280;40181;51.560;13.000;2022-12-05T04:22:24;100737.28;;;3.07;100.00
54270;BME280;40181;51.560;13.000;2022-12-05T04:24:56;100747.81;;;3.10;100.00
54270;BME280;40181;51.560;13.000;2022-12-05T04:27:52;100739.94;;;3.09;100.00
54270;BME280;40181;51.560;13.000;2022-12-05T04:30:28;100738.91;;;3.05;100.00
54270;BME280;40181;51.560;13.000;2022-12-05T04:33:05;100742.50;;;3.07;100.00
54270;BME280;40181;51.560;13.000;2022-12-05T04:35:42;100745.88;;;3.06;100.00
54270;BME280;40181;51.560;13.000;2022-12-05T04:38:19;100747.00;;;3.11;100.00
54270;BME280;40181;51.560;13.000;2022-12-05T04:40:54;100757.38;;;3.11;100.00
54270;BME280;40181;51.560;13.000;2022-12-05T04:43:28;100748.84;;;3.14;100.00
54270;BME280;40181;51.560;13.000;2022-12-05T04:46:02;100751.66;;;3.18;100.00
54270;BME280;40181;51.560;13.000;2022-12-05T04:48:37;100757.72;;;3.19;100.00
54270;BME280;40181;51.560;13.000;2022-12-05T04:51:15;100750.41;;;3.10;100.00
54270;BME280;40181;51.560;13.000;2022-12-05T04:53:50;100748.16;;;3.18;100.00
54270;BME280;40181;51.560;13.000;2022-12-05T04:56:24;100745.28;;;3.12;100.00
54270;BME280;40181;51.560;13.000;2022-12-05T04:58:56;100751.78;;;3.22;100.00
54270;BME280;40181;51.560;13.000;2022-12-05T05:01:30;100758.31;;;3.13;100.00
54270;BME280;40181;51.560;13.000;2022-12-05T05:04:06;100754.22;;;2.99;100.00
54270;BME280;40181;51.560;13.000;2022-12-05T05:06:41;100751.53;;;2.97;100.00
54270;BME280;40181;51.560;13.000;2022-12-05T05:09:11;100753.00;;;3.10;100.00
54270;BME280;40181;51.560;13.000;2022-12-05T05:11:40;100758.84;;;3.06;100.00
54270;BME280;40181;51.560;13.000;2022-12-05T05:14:09;100764.72;;;3.02;100.00
54270;BME280;40181;51.560;13.000;2022-12-05T05:16:40;100755.25;;;3.02;100.00
54270;BME280;40181;51.560;13.000;2022-12-05T05:19:10;100751.66;;;3.00;100.00
54270;BME280;40181;51.560;13.000;2022-12-05T05:21:42;100763.69;;;2.98;100.00
54270;BME280;40181;51.560;13.000;2022-12-05T05:24:13;100758.84;;;3.06;100.00
54270;BME280;40181;51.560;13.000;2022-12-05T05:26:44;100768.06;;;2.99;100.00
54270;BME280;40181;51.560;13.000;2022-12-05T05:29:14;100765.84;;;3.07;100.00
54270;BME280;40181;51.560;13.000;2022-12-05T05:31:44;100778.81;;;3.07;100.00
54270;BME280;40181;51.560;13.000;2022-12-05T05:34:13;100782.28;;;3.08;100.00
54270;BME280;40181;51.560;13.000;2022-12-05T05:36:50;100764.59;;;2.99;100.00
54270;BME280;40181;51.560;13.000;2022-12-05T05:39:19;100782.38;;;3.09;100.00
54270;BME280;40181;51.560;13.000;2022-12-05T05:41:51;100769.47;;;3.11;100.00
54270;BME280;40181;51.560;13.000;2022-12-05T05:44:20;100775.63;;;3.13;100.00
54270;BME280;40181;51.560;13.000;2022-12-05T05:46:49;100771.16;;;3.10;100.00
54270;BME280;40181;51.560;13.000;2022-12-05T05:49:18;100777.19;;;3.09;100.00
54270;BME280;40181;51.560;13.000;2022-12-05T05:51:50;100789.34;;;3.10;100.00
54270;BME280;40181;51.560;13.000;2022-12-05T05:54:19;100778.66;;;3.04;100.00
54270;BME280;40181;51.560;13.000;2022-12-05T05:56:49;100779.69;;;3.08;100.00
54270;BME280;40181;51.560;13.000;2022-12-05T05:59:18;100781.44;;;3.07;100.00
54270;BME280;40181;51.560;13.000;2022-12-05T06:01:47;100788.59;;;3.13;100.00
54270;BME280;40181;51.560;13.000;2022-12-05T06:04:16;100783.25;;;3.10;100.00
54270;BME280;40181;51.560;13.000;2022-12-05T06:06:45;100779.88;;;3.11;100.00
54270;BME280;40181;51.560;13.000;2022-12-05T06:09:17;100775.63;;;3.13;100.00
54270;BME280;40181;51.560;13.000;2022-12-05T06:11:46;100774.13;;;3.18;100.00
54270;BME280;40181;51.560;13.000;2022-12-05T06:14:16;100772.28;;;3.15;100.00
54270;BME280;40181;51.560;13.000;2022-12-05T06:16:46;100784.06;;;3.09;100.00
54270;BME280;40181;51.560;13.000;2022-12-05T06:19:15;100785.63;;;3.05;100.00
54270;BME280;40181;51.560;13.000;2022-12-05T06:21:44;100791.84;;;3.09;100.00
54270;BME280;40181;51.560;13.000;2022-12-05T06:24:18;100795.28;;;3.08;100.00
54270;BME280;40181;51.560;13.000;2022-12-05T06:26:47;100791.72;;;3.06;100.00
54270;BME280;40181;51.560;13.000;2022-12-05T06:29:16;100785.94;;;3.11;100.00
54270;BME280;40181;51.560;13.000;2022-12-05T06:31:46;100791.59;;;3.02;100.00
54270;BME280;40181;51.560;13.000;2022-12-05T06:34:15;100798.78;;;3.08;100.00
54270;BME280;40181;51.560;13.000;2022-12-05T06:36:44;100801.41;;;3.10;100.00
54270;BME280;40181;51.560;13.000;2022-12-05T06:39:13;100803.78;;;3.05;100.00
54270;BME280;40181;51.560;13.000;2022-12-05T06:41:45;100806.84;;;3.14;100.00
54270;BME280;40181;51.560;13.000;2022-12-05T06:44:14;100802.16;;;3.25;100.00
54270;BME280;40181;51.560;13.000;2022-12-05T06:46:44;100800.97;;;3.18;100.00
54270;BME280;40181;51.560;13.000;2022-12-05T06:49:13;100808.63;;;3.15;100.00
54270;BME280;40181;51.560;13.000;2022-12-05T06:51:43;100820.13;;;3.21;100.00
54270;BME280;40181;51.560;13.000;2022-12-05T06:54:12;100813.28;;;3.23;100.00
54270;BME280;40181;51.560;13.000;2022-12-05T06:56:44;100821.16;;;3.06;100.00
54270;BME280;40181;51.560;13.000;2022-12-05T06:59:13;100833.22;;;3.24;100.00
54270;BME280;40181;51.560;13.000;2022-12-05T07:01:43;100837.31;;;3.37;100.00
54270;BME280;40181;51.560;13.000;2022-12-05T07:04:13;100843.31;;;3.36;100.00
54270;BME280;40181;51.560;13.000;2022-12-05T07:06:45;100845.25;;;3.40;100.00
54270;BME280;40181;51.560;13.000;2022-12-05T07:09:16;100845.19;;;3.38;100.00
54270;BME280;40181;51.560;13.000;2022-12-05T07:11:49;100841.53;;;3.35;100.00
54270;BME280;40181;51.560;13.000;2022-12-05T07:14:19;100843.19;;;3.32;100.00
54270;BME280;40181;51.560;13.000;2022-12-05T07:16:48;100846.13;;;3.40;100.00
54270;BME280;40181;51.560;13.000;2022-12-05T07:19:17;100847.63;;;3.35;100.00
54270;BME280;40181;51.560;13.000;2022-12-05T07:21:46;100843.28;;;3.34;100.00
54270;BME280;40181;51.560;13.000;2022-12-05T07:24:15;100844.56;;;3.44;100.00
54270;BME280;40181;51.560;13.000;2022-12-05T07:26:45;100843.09;;;3.49;100.00
54270;BME280;40181;51.560;13.000;2022-12-05T07:29:16;100841.19;;;3.27;100.00
54270;BME280;40181;51.560;13.000;2022-12-05T07:31:46;100850.66;;;3.44;100.00
54270;BME280;40181;51.560;13.000;2022-12-05T07:34:15;100857.78;;;3.49;100.00
54270;BME280;40181;51.560;13.000;2022-12-05T07:36:44;100855.78;;;3.43;100.00
54270;BME280;40181;51.560;13.000;2022-12-05T07:39:13;100856.94;;;3.50;100.00
54270;BME280;40181;51.560;13.000;2022-12-05T07:41:43;100847.47;;;3.50;100.00
54270;BME280;40181;51.560;13.000;2022-12-05T07:44:12;100842.78;;;3.61;100.00
54270;BME280;40181;51.560;13.000;2022-12-05T07:46:44;100843.88;;;3.66;100.00
54270;BME280;40181;51.560;13.000;2022-12-05T07:49:13;100850.16;;;3.52;100.00
54270;BME280;40181;51.560;13.000;2022-12-05T07:51:43;100845.97;;;3.55;100.00
54270;BME280;40181;51.560;13.000;2022-12-05T07:54:12;100850.06;;;3.50;100.00
54270;BME280;40181;51.560;13.000;2022-12-05T07:56:41;100848.41;;;3.52;100.00
54270;BME280;40181;51.560;13.000;2022-12-05T07:59:10;100843.09;;;3.49;100.00
54270;BME280;40181;51.560;13.000;2022-12-05T08:01:42;100859.19;;;3.42;100.00
54270;BME280;40181;51.560;13.000;2022-12-05T08:04:12;100852.16;;;3.39;100.00
54270;BME280;40181;51.560;13.000;2022-12-05T08:06:41;100851.50;;;3.43;100.00
54270;BME280;40181;51.560;13.000;2022-12-05T08:09:10;100851.94;;;3.53;100.00
54270;BME280;40181;51.560;13.000;2022-12-05T08:11:40;100857.13;;;3.53;100.00
54270;BME280;40181;51.560;13.000;2022-12-05T08:14:09;100855.66;;;3.40;100.00
54270;BME280;40181;51.560;13.000;2022-12-05T08:16:38;100857.63;;;3.45;100.00
54270;BME280;40181;51.560;13.000;2022-12-05T08:19:11;100857.84;;;3.50;100.00
54270;BME280;40181;51.560;13.000;2022-12-05T08:21:41;100859.16;;;3.60;100.00
54270;BME280;40181;51.560;13.000;2022-12-05T08:24:11;100861.50;;;3.54;100.00
54270;BME280;40181;51.560;13.000;2022-12-05T08:26:40;100876.78;;;3.48;100.00
54270;BME280;40181;51.560;13.000;2022-12-05T08:29:11;100869.56;;;3.60;100.00
54270;BME280;40181;51.560;13.000;2022-12-05T08:31:46;100864.00;;;3.52;100.00
54270;BME280;40181;51.560;13.000;2022-12-05T08:34:18;100865.38;;;3.64;100.00
54270;BME280;40181;51.560;13.000;2022-12-05T08:36:48;100876.38;;;3.58;100.00
54270;BME280;40181;51.560;13.000;2022-12-05T08:39:18;100873.19;;;3.64;100.00
54270;BME280;40181;51.560;13.000;2022-12-05T08:41:48;100882.53;;;3.60;100.00
54270;BME280;40181;51.560;13.000;2022-12-05T08:44:17;100882.91;;;3.68;100.00
54270;BME280;40181;51.560;13.000;2022-12-05T08:46:49;100883.06;;;3.71;100.00
54270;BME280;40181;51.560;13.000;2022-12-05T08:49:18;100883.88;;;3.70;100.00
54270;BME280;40181;51.560;13.000;2022-12-05T08:51:47;100876.97;;;3.70;100.00
54270;BME280;40181;51.560;13.000;2022-12-05T08:54:17;100884.81;;;3.72;100.00
54270;BME280;40181;51.560;13.000;2022-12-05T08:56:49;100886.78;;;3.58;100.00
54270;BME280;40181;51.560;13.000;2022-12-05T08:59:18;100890.19;;;3.75;100.00
54270;BME280;40181;51.560;13.000;2022-12-05T09:01:51;100883.44;;;3.60;100.00
54270;BME280;40181;51.560;13.000;2022-12-05T09:04:20;100884.63;;;3.67;100.00
54270;BME280;40181;51.560;13.000;2022-12-05T09:06:49;100887.81;;;3.80;100.00
54270;BME280;40181;51.560;13.000;2022-12-05T09:09:18;100884.78;;;3.70;100.00
54270;BME280;40181;51.560;13.000;2022-12-05T09:11:48;100890.88;;;3.91;100.00
54270;BME280;40181;51.560;13.000;2022-12-05T09:14:17;100878.50;;;3.85;100.00
54270;BME280;40181;51.560;13.000;2022-12-05T09:16:47;100886.91;;;3.79;100.00
54270;BME280;40181;51.560;13.000;2022-12-05T09:19:19;100896.06;;;3.91;100.00
54270;BME280;40181;51.560;13.000;2022-12-05T09:21:50;100886.44;;;3.88;100.00
54270;BME280;40181;51.560;13.000;2022-12-05T09:24:19;100884.19;;;3.96;100.00
54270;BME280;40181;51.560;13.000;2022-12-05T09:26:49;100881.72;;;3.99;100.00
54270;BME280;40181;51.560;13.000;2022-12-05T09:29:18;100881.66;;;3.97;100.00
54270;BME280;40181;51.560;13.000;2022-12-05T09:31:52;100885.63;;;3.89;100.00
54270;BME280;40181;51.560;13.000;2022-12-05T09:34:21;100884.19;;;3.96;100.00
54270;BME280;40181;51.560;13.000;2022-12-05T09:36:51;100887.50;;;3.73;100.00
54270;BME280;40181;51.560;13.000;2022-12-05T09:39:21;100893.44;;;3.71;100.00
54270;BME280;40181;51.560;13.000;2022-12-05T09:42:08;100891.34;;;3.82;100.00
54270;BME280;40181;51.560;13.000;2022-12-05T09:45:11;100886.44;;;3.88;100.00
54270;BME280;40181;51.560;13.000;2022-12-05T09:47:53;100886.88;;;3.97;100.00
54270;BME280;40181;51.560;13.000;2022-12-05T09:50:26;100883.69;;;4.05;100.00
54270;BME280;40181;51.560;13.000;2022-12-05T09:53:05;100884.22;;;3.78;100.00
54270;BME280;40181;51.560;13.000;2022-12-05T09:55:44;100883.03;;;3.89;100.00
54270;BME280;40181;51.560;13.000;2022-12-05T09:58:27;100888.97;;;3.86;100.00
54270;BME280;40181;51.560;13.000;2022-12-05T10:01:19;100890.56;;;4.03;100.00
54270;BME280;40181;51.560;13.000;2022-12-05T10:04:13;100883.44;;;3.98;100.00
54270;BME280;40181;51.560;13.000;2022-12-05T10:07:00;100884.06;;;3.93;100.00
54270;BME280;40181;51.560;13.000;2022-12-05T10:09:47;100884.41;;;4.00;100.00
54270;BME280;40181;51.560;13.000;2022-12-05T10:12:41;100879.28;;;4.02;100.00
54270;BME280;40181;51.560;13.000;2022-12-05T10:15:23;100868.19;;;4.06;100.00
54270;BME280;40181;51.560;13.000;2022-12-05T10:17:59;100881.09;;;4.05;100.00
54270;BME280;40181;51.560;13.000;2022-12-05T10:20:37;100886.78;;;3.96;100.00
54270;BME280;40181;51.560;13.000;2022-12-05T10:23:16;100884.19;;;4.15;100.00
54270;BME280;40181;51.560;13.000;2022-12-05T10:25:53;100885.63;;;4.09;100.00
54270;BME280;40181;51.560;13.000;2022-12-05T10:28:30;100883.38;;;4.17;100.00
54270;BME280;40181;51.560;13.000;2022-12-05T10:31:04;100886.19;;;4.21;100.00
54270;BME280;40181;51.560;13.000;2022-12-05T10:33:40;100882.84;;;4.04;100.00
54270;BME280;40181;51.560;13.000;2022-12-05T10:36:15;100884.19;;;3.96;100.00
54270;BME280;40181;51.560;13.000;2022-12-05T10:38:44;100887.00;;;4.00;100.00
54270;BME280;40181;51.560;13.000;2022-12-05T10:41:14;100886.09;;;4.00;100.00
54270;BME280;40181;51.560;13.000;2022-12-05T10:43:44;100892.31;;;4.04;100.00
54270;BME280;40181;51.560;13.000;2022-12-05T10:46:15;100894.53;;;4.14;100.00
54270;BME280;40181;51.560;13.000;2022-12-05T10:48:44;100900.63;;;3.77;100.00
54270;BME280;40181;51.560;13.000;2022-12-05T10:51:19;100899.31;;;4.05;100.00
54270;BME280;40181;51.560;13.000;2022-12-05T10:53:53;100896.50;;;4.00;100.00
54270;BME280;40181;51.560;13.000;2022-12-05T10:56:40;100898.69;;;3.91;100.00
54270;BME280;40181;51.560;13.000;2022-12-05T10:59:13;100896.25;;;3.76;100.00
54270;BME280;40181;51.560;13.000;2022-12-05T11:01:46;100898.13;;;3.78;100.00
54270;BME280;40181;51.560;13.000;2022-12-05T11:04:22;100901.44;;;3.94;100.00
54270;BME280;40181;51.560;13.000;2022-12-05T11:06:59;100895.41;;;3.95;100.00
54270;BME280;40181;51.560;13.000;2022-12-05T11:09:31;100893.44;;;3.71;100.00
54270;BME280;40181;51.560;13.000;2022-12-05T11:12:12;100895.03;;;3.87;100.00
54270;BME280;40181;51.560;13.000;2022-12-05T11:14:57;100893.06;;;3.81;100.00
54270;BME280;40181;51.560;13.000;2022-12-05T11:17:32;100897.50;;;3.84;100.00
54270;BME280;40181;51.560;13.000;2022-12-05T11:20:33;100898.53;;;3.87;100.00
54270;BME280;40181;51.560;13.000;2022-12-05T11:23:26;100907.38;;;3.91;100.00
54270;BME280;40181;51.560;13.000;2022-12-05T11:25:57;100897.09;;;3.94;100.00
54270;BME280;40181;51.560;13.000;2022-12-05T11:28:32;100893.53;;;3.72;100.00
54270;BME280;40181;51.560;13.000;2022-12-05T11:31:05;100892.91;;;3.96;100.00
54270;BME280;40181;51.560;13.000;2022-12-05T11:34:00;100893.31;;;4.06;100.00
54270;BME280;40181;51.560;13.000;2022-12-05T11:36:40;100895.28;;;3.92;100.00
54270;BME280;40181;51.560;13.000;2022-12-05T11:39:16;100888.28;;;3.91;100.00
54270;BME280;40181;51.560;13.000;2022-12-05T11:41:59;100895.94;;;3.87;100.00
54270;BME280;40181;51.560;13.000;2022-12-05T11:44:47;100894.97;;;3.66;100.00
54270;BME280;40181;51.560;13.000;2022-12-05T11:47:34;100900.84;;;3.81;100.00
54270;BME280;40181;51.560;13.000;2022-12-05T11:50:24;100895.22;;;3.72;100.00
54270;BME280;40181;51.560;13.000;2022-12-05T11:53:13;100893.44;;;3.71;100.00
54270;BME280;40181;51.560;13.000;2022-12-05T11:55:58;100884.41;;;3.63;100.00
54270;BME280;40181;51.560;13.000;2022-12-05T11:58:43;100886.88;;;3.59;100.00
54270;BME280;40181;51.560;13.000;2022-12-05T12:01:38;100879.22;;;3.63;100.00
54270;BME280;40181;51.560;13.000;2022-12-05T12:04:29;100878.97;;;3.76;100.00
54270;BME280;40181;51.560;13.000;2022-12-05T12:07:28;100883.78;;;3.68;100.00
54270;BME280;40181;51.560;13.000;2022-12-05T12:10:12;100875.59;;;3.41;100.00
54270;BME280;40181;51.560;13.000;2022-12-05T12:12:59;100874.69;;;3.58;100.00
54270;BME280;40181;51.560;13.000;2022-12-05T12:15:45;100870.00;;;3.69;100.00
54270;BME280;40181;51.560;13.000;2022-12-05T12:18:34;100875.22;;;3.69;100.00
54270;BME280;40181;51.560;13.000;2022-12-05T12:21:17;100878.69;;;3.70;100.00
54270;BME280;40181;51.560;13.000;2022-12-05T12:23:59;100878.03;;;3.74;100.00
54270;BME280;40181;51.560;13.000;2022-12-05T12:26:39;100870.44;;;3.79;100.00
54270;BME280;40181;51.560;13.000;2022-12-05T12:29:24;100876.25;;;3.37;100.00
54270;BME280;40181;51.560;13.000;2022-12-05T12:32:13;100877.13;;;3.55;100.00
54270;BME280;40181;51.560;13.000;2022-12-05T12:35:00;100889.19;;;3.73;100.00
54270;BME280;40181;51.560;13.000;2022-12-05T12:37:44;100887.19;;;3.85;100.00
54270;BME280;40181;51.560;13.000;2022-12-05T12:40:21;100886.91;;;3.79;100.00
54270;BME280;40181;51.560;13.000;2022-12-05T12:43:00;100881.47;;;3.55;100.00
54270;BME280;40181;51.560;13.000;2022-12-05T12:45:50;100878.38;;;3.64;100.00
54270;BME280;40181;51.560;13.000;2022-12-05T12:48:43;100891.75;;;3.71;100.00
54270;BME280;40181;51.560;13.000;2022-12-05T12:51:21;100889.06;;;3.88;100.00
54270;BME280;40181;51.560;13.000;2022-12-05T12:53:58;100891.28;;;3.80;100.00
54270;BME280;40181;51.560;13.000;2022-12-05T12:56:49;100878.25;;;3.60;100.00
54270;BME280;40181;51.560;13.000;2022-12-05T12:59:48;100884.91;;;3.73;100.00
54270;BME280;40181;51.560;13.000;2022-12-05T13:02:32;100892.72;;;3.73;100.00
54270;BME280;40181;51.560;13.000;2022-12-05T13:05:07;100881.75;;;3.61;100.00
54270;BME280;40181;51.560;13.000;2022-12-05T13:07:50;100880.06;;;3.43;100.00
54270;BME280;40181;51.560;13.000;2022-12-05T13:10:25;100875.66;;;3.60;100.00
54270;BME280;40181;51.560;13.000;2022-12-05T13:12:59;100878.84;;;3.55;100.00
54270;BME280;40181;51.560;13.000;2022-12-05T13:15:33;100876.38;;;3.58;100.00
54270;BME280;40181;51.560;13.000;2022-12-05T13:18:14;100880.72;;;3.39;100.00
54270;BME280;40181;51.560;13.000;2022-12-05T13:20:47;100876.03;;;3.50;100.00